createdAt,value
2018-10-15T00:03:15.449Z,99748.00
2018-10-15T00:08:18.381Z,99759.00
2018-10-15T00:13:21.334Z,99761.00
2018-10-15T00:18:24.318Z,99769.00
2018-10-15T00:23:27.696Z,99779.00
2018-10-15T00:28:30.668Z,99790.00
2018-10-15T00:33:33.653Z,99801.00
2018-10-15T00:38:36.528Z,99808.00
2018-10-15T00:43:39.460Z,99805.00
2018-10-15T00:48:42.543Z,99812.00
2018-10-15T00:53:45.480Z,99818.00
2018-10-15T00:58:48.442Z,99819.00
2018-10-15T01:09:00.149Z,99810.00
2018-10-15T01:14:04.839Z,99820.00
2018-10-15T01:19:07.822Z,99817.00
2018-10-15T01:24:10.765Z,99804.00
2018-10-15T01:29:14.888Z,99807.00
2018-10-15T01:34:17.854Z,99798.00
2018-10-15T01:39:20.827Z,99807.00
2018-10-15T01:44:23.825Z,99811.00
2018-10-15T01:49:26.779Z,99804.00
2018-10-15T01:54:29.766Z,99819.00
2018-10-15T01:59:32.733Z,99822.00
2018-10-15T02:04:35.875Z,99822.00
2018-10-15T02:09:38.996Z,99834.00
2018-10-15T02:14:41.935Z,99823.00
2018-10-15T02:19:44.848Z,99824.00
2018-10-15T02:24:47.825Z,99807.00
2018-10-15T02:29:50.767Z,99799.00
2018-10-15T02:34:53.675Z,99794.00
2018-10-15T02:39:56.608Z,99805.00
2018-10-15T02:44:59.594Z,99805.00
2018-10-15T02:50:07.243Z,99821.00
2018-10-15T02:55:10.132Z,99824.00
2018-10-15T03:00:13.957Z,99812.00
2018-10-15T03:05:17.149Z,99809.00
2018-10-15T03:10:20.223Z,99828.00
2018-10-15T03:15:23.225Z,99829.00
2018-10-15T03:20:26.182Z,99839.00
2018-10-15T03:25:29.146Z,99842.00
2018-10-15T03:30:32.079Z,99857.00
2018-10-15T03:35:35.032Z,99859.00
2018-10-15T03:40:38.010Z,99851.00
2018-10-15T03:45:40.985Z,99849.00
2018-10-15T03:50:43.940Z,99851.00
2018-10-15T03:55:46.970Z,99844.00
2018-10-15T04:00:49.938Z,99851.00
2018-10-15T04:05:52.863Z,99851.00
2018-10-15T04:10:56.296Z,99868.00
2018-10-15T04:15:59.374Z,99867.00
2018-10-15T04:21:04.475Z,99869.00
2018-10-15T04:26:07.481Z,99868.00
2018-10-15T04:31:10.417Z,99869.00
2018-10-15T04:36:13.353Z,99866.00
2018-10-15T04:41:16.331Z,99869.00
2018-10-15T04:46:19.218Z,99879.00
2018-10-15T04:51:22.326Z,99872.00
2018-10-15T04:56:25.309Z,99884.00
2018-10-15T05:01:28.329Z,99883.00
2018-10-15T05:06:31.485Z,99886.00
2018-10-15T05:11:34.636Z,99895.00
2018-10-15T05:16:37.570Z,99902.00
2018-10-15T05:21:40.560Z,99915.00
2018-10-15T05:26:43.566Z,99913.00
2018-10-15T05:31:46.574Z,99925.00
2018-10-15T05:36:49.615Z,99918.00
2018-10-15T05:41:52.595Z,99928.00
2018-10-15T05:46:55.622Z,99926.00
2018-10-15T05:51:58.622Z,99942.00
2018-10-15T05:57:04.746Z,99943.00
2018-10-15T06:02:07.816Z,99947.00
2018-10-15T06:07:10.833Z,99957.00
2018-10-15T06:12:13.987Z,99959.00
2018-10-15T06:17:16.973Z,99962.00
2018-10-15T06:22:19.875Z,99967.00
2018-10-15T06:27:22.900Z,99979.00
2018-10-15T06:32:25.829Z,99970.00
2018-10-15T06:37:28.844Z,99978.00
2018-10-15T06:42:31.807Z,99990.00
2018-10-15T06:47:35.062Z,99974.00
2018-10-15T06:52:38.323Z,99991.00
2018-10-15T06:57:41.329Z,99997.00
2018-10-15T07:02:44.300Z,100008.00
2018-10-15T07:07:47.341Z,100026.00
2018-10-15T07:12:50.608Z,100029.00
2018-10-15T07:17:53.653Z,100027.00
2018-10-15T07:22:56.830Z,100018.00
2018-10-15T07:27:59.893Z,100019.00
2018-10-15T07:33:05.732Z,100046.00
2018-10-15T07:38:08.793Z,100061.00
2018-10-15T07:43:11.811Z,100052.00
2018-10-15T07:48:14.777Z,100043.00
2018-10-15T07:53:17.903Z,100055.00
2018-10-15T07:58:20.877Z,100049.00
2018-10-15T08:03:23.769Z,100058.00
2018-10-15T08:08:26.847Z,100055.00
2018-10-15T08:13:29.797Z,100068.00
2018-10-15T08:18:32.807Z,100067.00
2018-10-15T08:23:35.805Z,100089.00
2018-10-15T08:28:39.092Z,100084.00
2018-10-15T08:33:41.956Z,100080.00
2018-10-15T08:38:44.947Z,100089.00
2018-10-15T08:43:47.969Z,100093.00
2018-10-15T08:48:50.963Z,100081.00
2018-10-15T08:53:53.975Z,100090.00
2018-10-15T08:58:56.985Z,100090.00
2018-10-15T09:04:02.732Z,100079.00
2018-10-15T09:09:08.737Z,100066.00
2018-10-15T09:14:11.564Z,100081.00
2018-10-15T09:19:14.551Z,100090.00
2018-10-15T09:24:17.888Z,100094.00
2018-10-15T09:29:21.065Z,100101.00
2018-10-15T09:34:23.985Z,100104.00
2018-10-15T09:39:26.963Z,100102.00
2018-10-15T09:44:29.980Z,100098.00
2018-10-15T09:49:32.928Z,100088.00
2018-10-15T09:54:36.003Z,100087.00
2018-10-15T09:59:38.972Z,100082.00
2018-10-15T10:04:42.066Z,100086.00
2018-10-15T10:09:44.937Z,100087.00
2018-10-15T10:14:47.872Z,100087.00
2018-10-15T10:19:50.753Z,100084.00
2018-10-15T10:24:53.740Z,100084.00
2018-10-15T10:29:57.487Z,100084.00
2018-10-15T10:35:41.601Z,100080.00
2018-10-15T10:40:44.383Z,100075.00
2018-10-15T10:45:47.391Z,100070.00
2018-10-15T10:50:50.319Z,100082.00
2018-10-15T10:55:53.447Z,100063.00
2018-10-15T11:00:56.433Z,100073.00
2018-10-15T11:05:59.320Z,100070.00
2018-10-15T11:11:03.384Z,100065.00
2018-10-15T11:16:06.899Z,100064.00
2018-10-15T11:21:10.133Z,100048.00
2018-10-15T11:26:13.032Z,100050.00
2018-10-15T11:31:16.039Z,100046.00
2018-10-15T11:36:19.070Z,100036.00
2018-10-15T11:41:22.041Z,100028.00
2018-10-15T11:46:25.387Z,100036.00
2018-10-15T11:51:28.607Z,100034.00
2018-10-15T11:56:31.554Z,100024.00
2018-10-15T12:01:34.510Z,100035.00
2018-10-15T12:06:37.588Z,100033.00
2018-10-15T12:11:41.005Z,100023.00
2018-10-15T12:16:44.101Z,100013.00
2018-10-15T12:21:47.120Z,100016.00
2018-10-15T12:26:50.233Z,100006.00
2018-10-15T12:31:53.411Z,100009.00
2018-10-15T12:36:56.563Z,100007.00
2018-10-15T12:41:59.559Z,100002.00
2018-10-15T12:47:03.301Z,99999.00
2018-10-15T12:52:06.343Z,100007.00
2018-10-15T12:57:09.392Z,100006.00
2018-10-15T13:02:12.336Z,100015.00
2018-10-15T13:07:15.339Z,100008.00
2018-10-15T13:12:18.348Z,100003.00
2018-10-15T13:17:21.728Z,99993.00
2018-10-15T13:22:24.706Z,99996.00
2018-10-15T13:27:27.719Z,99988.00
2018-10-15T13:32:30.758Z,99995.00
2018-10-15T13:37:33.944Z,99995.00
2018-10-15T13:42:36.968Z,99988.00
2018-10-15T13:47:40.008Z,99983.00
2018-10-15T13:52:43.043Z,99980.00
2018-10-15T13:57:46.002Z,99980.00
2018-10-15T14:02:49.136Z,99981.00
2018-10-15T14:07:52.101Z,99980.00
2018-10-15T14:12:55.217Z,99977.00
2018-10-15T14:17:58.238Z,99983.00
2018-10-15T14:23:03.142Z,99981.00
2018-10-15T14:28:06.095Z,99990.00
2018-10-15T14:33:09.040Z,99996.00
2018-10-15T14:38:11.947Z,99999.00
2018-10-15T14:43:14.967Z,99995.00
2018-10-15T14:48:17.937Z,99991.00
2018-10-15T14:53:21.050Z,99995.00
2018-10-15T14:58:24.064Z,99998.00
2018-10-15T15:03:27.160Z,99996.00
2018-10-15T15:08:30.158Z,99992.00
2018-10-15T15:13:50.481Z,99995.00
2018-10-15T15:18:53.483Z,99986.00
2018-10-15T15:23:56.535Z,99992.00
2018-10-15T15:28:59.605Z,100002.00
2018-10-15T15:34:03.971Z,100005.00
2018-10-15T15:39:08.249Z,100005.00
2018-10-15T15:44:11.191Z,100010.00
2018-10-15T15:49:14.195Z,100018.00
2018-10-15T15:54:17.198Z,100014.00
2018-10-15T15:59:20.185Z,100014.00
2018-10-15T16:04:23.355Z,100016.00
2018-10-15T16:09:26.902Z,100018.00
2018-10-15T16:14:29.952Z,100018.00
2018-10-15T16:19:32.975Z,100019.00
2018-10-15T16:24:35.948Z,100017.00
2018-10-15T16:29:39.033Z,100008.00
2018-10-15T16:34:42.044Z,100020.00
2018-10-15T16:39:45.004Z,100025.00
2018-10-15T16:44:47.914Z,100030.00
2018-10-15T16:49:50.864Z,100037.00
2018-10-15T16:54:53.861Z,100027.00
2018-10-15T16:59:56.924Z,100033.00
2018-10-15T17:04:59.916Z,100034.00
2018-10-15T17:10:07.965Z,100042.00
2018-10-15T17:15:12.810Z,100046.00
2018-10-15T17:20:15.868Z,100042.00
2018-10-15T17:25:18.881Z,100049.00
2018-10-15T17:30:21.888Z,100057.00
2018-10-15T17:35:24.880Z,100050.00
2018-10-15T17:40:27.863Z,100049.00
2018-10-15T17:45:30.898Z,100054.00
2018-10-15T17:50:34.030Z,100053.00
2018-10-15T17:55:37.314Z,100054.00
2018-10-15T18:00:40.868Z,100061.00
2018-10-15T18:05:44.052Z,100047.00
2018-10-15T18:10:47.112Z,100057.00
2018-10-15T18:15:50.168Z,100056.00
2018-10-15T18:20:53.191Z,100054.00
2018-10-15T18:25:57.000Z,100053.00
2018-10-15T18:30:59.958Z,100052.00
2018-10-15T18:36:05.174Z,100067.00
2018-10-15T18:41:08.528Z,100070.00
2018-10-15T18:46:11.820Z,100075.00
2018-10-15T18:51:14.757Z,100075.00
2018-10-15T18:56:17.819Z,100064.00
2018-10-15T19:01:20.906Z,100076.00
2018-10-15T19:06:23.915Z,100077.00
2018-10-15T19:11:27.005Z,100065.00
2018-10-15T19:16:29.913Z,100061.00
2018-10-15T19:21:33.335Z,100076.00
2018-10-15T19:26:36.478Z,100063.00
2018-10-15T19:31:39.561Z,100085.00
2018-10-15T19:36:42.910Z,100075.00
2018-10-15T19:41:45.977Z,100083.00
2018-10-15T19:46:48.955Z,100087.00
2018-10-15T19:51:51.927Z,100088.00
2018-10-15T19:56:55.273Z,100101.00
2018-10-15T20:01:58.710Z,100102.00
2018-10-15T20:07:04.180Z,100102.00
2018-10-15T20:12:07.707Z,100102.00
2018-10-15T20:17:10.664Z,100119.00
2018-10-15T20:22:13.606Z,100109.00
2018-10-15T20:27:16.565Z,100111.00
2018-10-15T20:32:19.595Z,100103.00
2018-10-15T20:37:22.682Z,100112.00
2018-10-15T20:42:25.833Z,100122.00
2018-10-15T20:47:29.044Z,100121.00
2018-10-15T20:52:32.258Z,100126.00
2018-10-15T20:57:35.239Z,100132.00
2018-10-15T21:02:39.753Z,100131.00
2018-10-15T21:07:42.638Z,100139.00
2018-10-15T21:12:45.553Z,100139.00
2018-10-15T21:17:48.463Z,100147.00
2018-10-15T21:22:51.512Z,100140.00
2018-10-15T21:27:54.454Z,100135.00
2018-10-15T21:32:57.493Z,100143.00
2018-10-15T21:38:02.514Z,100139.00
2018-10-15T21:43:06.204Z,100141.00
2018-10-15T21:48:09.370Z,100143.00
2018-10-15T21:53:12.857Z,100143.00
2018-10-15T21:58:15.857Z,100147.00
2018-10-15T22:03:19.108Z,100146.00
2018-10-15T22:08:22.106Z,100139.00
2018-10-15T22:13:25.146Z,100147.00
2018-10-15T22:18:28.264Z,100157.00
2018-10-15T22:23:31.218Z,100157.00
2018-10-15T22:28:34.133Z,100152.00
2018-10-15T22:33:37.170Z,100163.00
2018-10-15T22:38:40.133Z,100160.00
2018-10-15T22:43:43.129Z,100157.00
2018-10-15T22:48:46.173Z,100169.00
2018-10-15T22:53:49.183Z,100172.00
2018-10-15T22:58:52.180Z,100162.00
2018-10-15T23:03:55.187Z,100162.00
2018-10-15T23:08:58.195Z,100167.00
2018-10-15T23:14:02.267Z,100171.00
2018-10-15T23:19:05.721Z,100170.00
2018-10-15T23:24:08.665Z,100179.00
2018-10-15T23:29:11.640Z,100182.00
2018-10-15T23:34:14.630Z,100182.00
2018-10-15T23:39:17.841Z,100190.00
2018-10-15T23:44:20.815Z,100191.00
2018-10-15T23:49:23.940Z,100204.00
2018-10-15T23:54:26.911Z,100203.00
2018-10-15T23:59:29.903Z,100193.00
